Sand Creek, MI

2:24 AM EST on March 02, 2015 (GMT -0500)
APRSWXNET Jasper MI US | Change Station
CLOSE
Current Station
Personal Weather Station
Location: Jasper, MI
Elevation: 740 ft
Nearby Weather Stations

Elev 740 ft 41.80 °N, 84.04 °W | Updated 20 minutes ago

Overcast
Overcast
24 °F
Feels Like 24 °F
N
2
Wind Variable Wind from WNW
Gusts 6.0 mph

Today
High -- | Low -- °F
--% Chance of Precip.
Yesterday
High -- | Low -- °F
Precip. -- in
7:10 AM 6:27 PM
Waxing Gibbous, 90% visible
Pressure 30.32 in
Visibility 10.0 miles
Clouds Few 2000 ft
Overcast 3000 ft
Windchill 24 °F
Dew Point 19 °F
Humidity 82%
Rainfall 0.12 in
Snow Depth Not available.
UV 0 out of 12
Pollen .40 out of 12
Air Quality Not available.
Flu Activity Not available.
METAR KADG 020653Z AUTO 29008KT 10SM FEW020 OVC030 M05/M09 A3027 RMK AO2 SLP265 T10501094 TSNO

More Conditions Fewer Conditions

Pressure 30.32 in
Visibility 10.0 miles
Clouds Few 2000 ft
Overcast 3000 ft
Windchill 24 °F
Dew Point 19 °F
Humidity 82%
Rainfall 0.12 in
Snow Depth Not available.
UV 0 out of 12
Pollen .40 out of 12
Air Quality Not available.
Flu Activity Not available.
METAR KADG 020653Z AUTO 29008KT 10SM FEW020 OVC030 M05/M09 A3027 RMK AO2 SLP265 T10501094 TSNO

More Conditions Fewer Conditions

10-Day Weather Forecast

Almanac

Astronomy

Mar. 02, 2015 Rise Set
Actual Time
Civil Twilight
Nautical Twilight
Astronomical Twilight
Moon
Length of Visible Light
Length of Day
Tomorrow will be .
, % of the Moon is Illuminated

Today's Extremes

State Highs State Lows

Community

WunderPhotos

Upload Photos

1,801,739 photos uploaded!

WunderBlogs® & News

Nearby

Air Quality

  Air Quality AQ Index Pollutant
Not available.

Snow Depth

Station Depth Elevation

Earthquake Activity

City Distance Mag. Time & Date
Minimum magnitude displayed is 2.5.

Coastal Water Temperatures

Place Temperature

Nearby Weather Stations